Terminal Aerodrome Forecast
Issued by NWS

Home | Current Version | Previous Version | Text Only | Print | Product List | Glossary On
Versions: 1 2 3 4 5 6 7 8 9 10 11 12 13 14 15 16 17
285
FTUS45 KRIW 220539
TAFCPR
TAF
KCPR 220539Z 2206/2306 26014KT P6SM VCSH SCT040 BKN060
      TEMPO 2206/2209 3SM -SHSN BKN035
     FM220900 25014KT P6SM FEW040 BKN080
     FM221900 29015KT P6SM SCT060 BKN100
     FM230000 36008KT P6SM SCT040 OVC060
     FM230500 02010KT P6SM VCSH OVC020=

USA.gov is the U.S. government's official web portal to all federal, state and local government web resources and services.